Time;durP1;ratioP1;P1;durP2;ratioP2;P2;SDS_P1;SDS_P2;PMS_P1;PMS_P2;Temp;Humidity;BMP_temperature;BMP_pressure;BME280_temperature;BME280_humidity;BME280_pressure;Samples;Min_cycle;Max_cycle;Signal;HPM_P1;HPM_P2
2023/09/25 00:00:30;;;;;;;2.60;1.80;;;15.30;99.90;;;;;;5094938;28;20208;-65
2023/09/25 00:02:58;;;;;;;1.58;1.35;;;15.20;99.90;;;;;;5094258;28;20088;-64
2023/09/25 00:05:24;;;;;;;1.30;1.17;;;15.20;99.90;;;;;;5094635;28;20111;-64
2023/09/25 00:07:49;;;;;;;1.60;1.50;;;15.20;99.90;;;;;;5094302;28;20024;-64
2023/09/25 00:10:15;;;;;;;2.22;1.20;;;15.20;99.90;;;;;;5095526;28;20023;-64
2023/09/25 00:12:41;;;;;;;2.28;1.40;;;15.20;99.90;;;;;;5095680;28;20440;-64
2023/09/25 00:15:07;;;;;;;1.50;1.30;;;15.20;99.90;;;;;;5095600;28;20020;-64
2023/09/25 00:17:33;;;;;;;2.83;1.67;;;15.20;99.90;;;;;;5095057;28;20519;-64
2023/09/25 00:19:59;;;;;;;4.82;1.20;;;15.20;99.90;;;;;;5094023;28;20107;-64
2023/09/25 00:22:24;;;;;;;2.88;1.42;;;15.20;99.90;;;;;;5095189;28;20031;-64
2023/09/25 00:24:50;;;;;;;1.33;1.23;;;15.20;99.90;;;;;;5093832;28;20020;-64
2023/09/25 00:27:16;;;;;;;2.45;1.50;;;15.10;99.90;;;;;;5093771;28;20024;-64
2023/09/25 00:29:42;;;;;;;2.30;1.55;;;15.10;99.90;;;;;;5094817;28;20020;-64
2023/09/25 00:32:07;;;;;;;1.83;1.33;;;15.20;99.90;;;;;;5093603;28;20518;-64
2023/09/25 00:34:33;;;;;;;1.60;1.42;;;15.10;99.90;;;;;;5093827;28;20020;-64
2023/09/25 00:36:59;;;;;;;2.05;1.20;;;15.10;99.90;;;;;;5056870;28;20074;-64
2023/09/25 00:39:25;;;;;;;2.50;1.65;;;15.10;99.90;;;;;;5074650;28;20016;-65
2023/09/25 00:41:50;;;;;;;1.42;1.33;;;15.10;99.90;;;;;;5056999;28;20473;-65
2023/09/25 00:44:16;;;;;;;1.88;1.30;;;15.10;99.90;;;;;;5074465;28;20032;-64
2023/09/25 00:46:43;;;;;;;1.70;1.48;;;15.10;99.90;;;;;;5074525;28;20031;-64
2023/09/25 00:49:10;;;;;;;2.15;1.17;;;15.20;99.90;;;;;;5074730;28;20063;-64
2023/09/25 00:51:36;;;;;;;2.97;1.52;;;15.10;99.90;;;;;;5074651;28;20031;-64
2023/09/25 00:54:02;;;;;;;1.30;1.20;;;15.10;99.90;;;;;;5074312;28;20031;-64
2023/09/25 00:56:28;;;;;;;2.85;1.48;;;15.10;99.90;;;;;;5073976;28;20017;-64
2023/09/25 00:58:54;;;;;;;1.50;1.45;;;15.10;99.90;;;;;;5056279;28;20024;-65
2023/09/25 01:01:20;;;;;;;3.88;1.50;;;15.00;99.90;;;;;;5074034;28;20025;-64
2023/09/25 01:03:46;;;;;;;4.20;1.67;;;15.00;99.90;;;;;;5074232;28;20417;-65
2023/09/25 01:06:12;;;;;;;1.92;1.60;;;15.00;99.90;;;;;;5074968;28;20029;-65
2023/09/25 01:08:38;;;;;;;2.65;1.52;;;15.00;99.90;;;;;;5057154;28;20167;-64
2023/09/25 01:11:03;;;;;;;2.45;1.40;;;14.90;99.90;;;;;;5074751;28;20059;-65
2023/09/25 01:13:30;;;;;;;2.28;1.30;;;14.90;99.90;;;;;;5074286;28;20024;-64
2023/09/25 01:15:56;;;;;;;4.05;1.83;;;14.90;99.90;;;;;;5056046;28;20024;-64
2023/09/25 01:18:21;;;;;;;2.38;1.45;;;14.90;99.90;;;;;;5073871;28;20437;-65
2023/09/25 01:20:47;;;;;;;2.47;1.70;;;14.80;99.90;;;;;;5074151;28;20060;-64
2023/09/25 01:23:13;;;;;;;2.28;1.77;;;14.70;99.90;;;;;;5055922;28;20024;-64
2023/09/25 01:25:38;;;;;;;2.33;1.38;;;14.70;99.90;;;;;;5055634;28;20111;-64
2023/09/25 01:28:04;;;;;;;2.25;1.60;;;14.60;99.90;;;;;;5074137;28;20103;-64
2023/09/25 01:30:30;;;;;;;2.65;1.33;;;14.50;99.90;;;;;;5055811;28;20448;-64
2023/09/25 01:32:57;;;;;;;6.45;1.67;;;14.30;99.90;;;;;;5073799;28;20028;-64
2023/09/25 01:35:24;;;;;;;2.58;1.45;;;14.30;99.90;;;;;;5073947;28;20047;-64
2023/09/25 01:37:55;;;;;;;1.52;1.42;;;14.20;99.90;;;;;;5073826;28;20035;-64
2023/09/25 01:40:20;;;;;;;2.80;1.40;;;14.10;99.90;;;;;;5073449;28;20099;-64
2023/09/25 01:42:47;;;;;;;4.97;1.45;;;14.00;99.90;;;;;;5055526;28;20114;-64
2023/09/25 01:45:18;;;;;;;3.45;1.65;;;13.90;99.90;;;;;;5073765;28;20029;-64
2023/09/25 01:47:51;;;;;;;7.75;2.22;;;13.90;99.90;;;;;;5055635;28;20051;-64
2023/09/25 01:50:21;;;;;;;2.10;1.88;;;13.80;99.90;;;;;;5073580;28;20091;-64
2023/09/25 01:52:49;;;;;;;5.60;1.73;;;13.70;99.90;;;;;;5055568;28;20452;-64
2023/09/25 01:55:15;;;;;;;2.97;1.85;;;13.70;99.90;;;;;;5055457;28;20020;-64
2023/09/25 01:57:41;;;;;;;2.97;1.38;;;13.60;99.90;;;;;;5073474;28;20020;-65
2023/09/25 02:00:10;;;;;;;3.15;2.15;;;13.60;99.90;;;;;;5073806;28;20032;-64
2023/09/25 02:02:36;;;;;;;3.83;1.80;;;13.50;99.90;;;;;;5073134;28;20476;-64
2023/09/25 02:05:03;;;;;;;3.30;1.38;;;13.50;99.90;;;;;;5073503;28;20028;-64
2023/09/25 02:07:28;;;;;;;3.67;2.00;;;13.50;99.90;;;;;;5055463;28;20424;-64
2023/09/25 02:09:54;;;;;;;5.00;1.88;;;13.40;99.90;;;;;;5055471;28;20046;-64
2023/09/25 02:12:20;;;;;;;1.85;1.75;;;13.40;99.90;;;;;;5073299;28;20425;-64
2023/09/25 02:14:45;;;;;;;2.15;1.63;;;13.40;99.90;;;;;;5073396;28;20028;-65
2023/09/25 02:17:11;;;;;;;3.33;1.83;;;13.30;99.90;;;;;;5073238;28;20056;-65
2023/09/25 02:19:37;;;;;;;4.88;1.73;;;13.30;99.90;;;;;;5073553;28;20054;-64
2023/09/25 02:22:06;;;;;;;5.72;2.15;;;13.20;99.90;;;;;;5055369;28;20020;-65
2023/09/25 02:24:35;;;;;;;2.05;1.85;;;13.20;99.90;;;;;;5074206;28;20055;-64
2023/09/25 02:27:01;;;;;;;1.80;1.70;;;13.20;99.90;;;;;;5073486;28;20162;-64
2023/09/25 02:29:27;;;;;;;2.53;2.17;;;13.20;99.90;;;;;;5075189;28;20082;-64
2023/09/25 02:31:53;;;;;;;3.13;2.03;;;13.10;99.90;;;;;;5077528;28;20016;-64
2023/09/25 02:34:18;;;;;;;2.30;1.90;;;13.10;99.90;;;;;;5077485;28;20360;-64
2023/09/25 02:36:44;;;;;;;4.45;2.10;;;13.10;99.90;;;;;;5077698;28;20045;-65
2023/09/25 02:39:10;;;;;;;4.00;2.05;;;13.10;99.90;;;;;;5059507;28;20113;-64
2023/09/25 02:41:36;;;;;;;2.22;1.88;;;13.00;99.90;;;;;;5077032;28;20031;-64
2023/09/25 02:44:01;;;;;;;5.85;2.05;;;13.00;99.90;;;;;;5077063;28;20035;-64
2023/09/25 02:46:27;;;;;;;3.33;2.00;;;12.90;99.90;;;;;;5077174;28;20422;-64
2023/09/25 02:48:52;;;;;;;3.92;2.63;;;12.90;99.90;;;;;;5077020;28;20024;-65
2023/09/25 02:51:18;;;;;;;3.33;1.73;;;12.90;99.90;;;;;;5077328;28;20100;-65
2023/09/25 02:53:44;;;;;;;3.05;2.03;;;12.80;99.90;;;;;;5077208;28;20028;-65
2023/09/25 02:56:11;;;;;;;2.55;2.00;;;12.80;99.90;;;;;;5063190;28;20016;-65
2023/09/25 02:58:37;;;;;;;4.75;2.00;;;12.80;99.90;;;;;;5062557;28;20498;-65
2023/09/25 03:01:02;;;;;;;4.43;2.38;;;12.70;99.90;;;;;;5061526;28;20114;-65
2023/09/25 03:03:32;;;;;;;3.78;2.65;;;12.70;99.90;;;;;;5076952;28;20024;-65
2023/09/25 03:05:58;;;;;;;6.10;2.72;;;12.70;99.90;;;;;;5076907;28;20020;-65
2023/09/25 03:08:24;;;;;;;3.42;2.80;;;12.60;99.90;;;;;;5076837;28;20020;-64
2023/09/25 03:10:49;;;;;;;5.07;2.05;;;12.60;99.90;;;;;;5059551;28;20021;-64
2023/09/25 03:13:15;;;;;;;3.97;2.08;;;12.50;99.90;;;;;;5058576;28;20470;-65
2023/09/25 03:15:41;;;;;;;3.50;2.40;;;12.50;99.90;;;;;;5076303;28;20020;-65
2023/09/25 03:18:06;;;;;;;3.53;2.15;;;12.50;99.90;;;;;;5076663;28;20382;-64
2023/09/25 03:20:33;;;;;;;5.63;2.10;;;12.40;99.90;;;;;;5076493;28;20436;-64
2023/09/25 03:22:58;;;;;;;3.22;2.20;;;12.40;99.90;;;;;;5058324;28;20032;-65
2023/09/25 03:25:24;;;;;;;6.63;2.33;;;12.40;99.90;;;;;;5076741;28;20028;-64
2023/09/25 03:27:50;;;;;;;3.92;2.05;;;12.40;99.90;;;;;;5076492;28;20016;-64
2023/09/25 03:30:16;;;;;;;2.35;2.03;;;12.40;99.90;;;;;;5076147;28;20028;-64
2023/09/25 03:32:43;;;;;;;3.58;2.55;;;12.30;99.90;;;;;;5076738;28;20028;-64
2023/09/25 03:35:09;;;;;;;2.40;2.20;;;12.30;99.90;;;;;;5076266;28;20364;-65
2023/09/25 03:37:34;;;;;;;2.28;2.05;;;12.30;99.90;;;;;;5076485;28;20020;-64
2023/09/25 03:40:00;;;;;;;3.33;2.33;;;12.20;99.90;;;;;;5076269;28;20023;-64
2023/09/25 03:42:26;;;;;;;4.80;2.63;;;12.20;99.90;;;;;;5076268;28;20116;-64
2023/09/25 03:44:51;;;;;;;3.13;2.55;;;12.20;99.90;;;;;;5058468;28;20361;-65
2023/09/25 03:47:18;;;;;;;5.03;2.45;;;12.20;99.90;;;;;;5076380;28;20146;-64
2023/09/25 03:49:44;;;;;;;6.72;2.85;;;12.20;99.90;;;;;;5058219;28;20020;-64
2023/09/25 03:52:11;;;;;;;6.93;2.42;;;12.30;99.90;;;;;;5075813;28;20062;-64
2023/09/25 03:54:36;;;;;;;2.58;2.08;;;12.30;99.90;;;;;;5076049;28;20039;-64
2023/09/25 03:57:02;;;;;;;3.78;2.28;;;12.30;99.90;;;;;;5076218;28;20028;-64
2023/09/25 03:59:28;;;;;;;4.10;2.33;;;12.30;99.90;;;;;;5058186;28;20020;-64
2023/09/25 04:01:53;;;;;;;5.22;2.58;;;12.30;99.90;;;;;;5076072;28;20021;-65
2023/09/25 04:04:19;;;;;;;3.78;2.70;;;12.30;99.90;;;;;;5075859;28;20031;-65
2023/09/25 04:06:44;;;;;;;2.60;2.40;;;12.30;99.90;;;;;;5057907;28;20033;-65
2023/09/25 04:09:10;;;;;;;4.40;2.38;;;12.30;99.90;;;;;;5075891;28;20078;-65
2023/09/25 04:11:36;;;;;;;3.50;2.58;;;12.30;99.90;;;;;;5075543;28;20439;-69
2023/09/25 04:14:02;;;;;;;5.05;2.42;;;12.30;99.90;;;;;;5057611;28;20020;-64
2023/09/25 04:16:28;;;;;;;5.00;2.40;;;12.30;99.90;;;;;;5058284;28;20020;-64
2023/09/25 04:18:58;;;;;;;9.85;2.65;;;12.30;99.90;;;;;;5075202;28;20099;-64
2023/09/25 04:21:24;;;;;;;7.00;3.10;;;12.30;99.90;;;;;;5075270;28;20028;-64
2023/09/25 04:23:49;;;;;;;3.95;2.75;;;12.30;99.90;;;;;;5057263;28;20037;-64
2023/09/25 04:26:16;;;;;;;5.78;2.95;;;12.20;99.90;;;;;;5075490;28;20073;-65
2023/09/25 04:28:42;;;;;;;6.82;3.05;;;12.20;99.90;;;;;;5075028;28;20351;-65
2023/09/25 04:31:10;;;;;;;3.28;2.60;;;12.20;99.90;;;;;;5075049;28;20024;-65
2023/09/25 04:33:38;;;;;;;5.18;2.53;;;12.20;99.90;;;;;;5056887;28;20043;-65
2023/09/25 04:36:04;;;;;;;6.28;2.97;;;12.20;99.90;;;;;;5074976;28;20036;-64
2023/09/25 04:38:30;;;;;;;2.83;2.38;;;12.20;99.90;;;;;;5074862;28;20070;-64
2023/09/25 04:40:56;;;;;;;4.97;2.50;;;12.30;99.90;;;;;;5074928;28;20488;-64
2023/09/25 04:43:22;;;;;;;6.50;2.67;;;12.30;99.90;;;;;;5074977;28;20029;-65
2023/09/25 04:45:51;;;;;;;3.55;2.30;;;12.30;99.90;;;;;;5074282;28;20099;-65
2023/09/25 04:48:18;;;;;;;11.73;3.30;;;12.40;99.90;;;;;;5056482;28;20380;-64
2023/09/25 04:50:44;;;;;;;4.35;3.15;;;12.40;99.90;;;;;;5074675;28;20048;-64
2023/09/25 04:53:10;;;;;;;4.80;2.78;;;12.50;99.90;;;;;;5073839;28;20031;-65
2023/09/25 04:55:38;;;;;;;3.78;2.40;;;12.60;99.90;;;;;;5074528;28;20024;-65
2023/09/25 04:58:04;;;;;;;3.07;2.77;;;12.60;99.90;;;;;;5056488;28;20020;-65
2023/09/25 05:00:32;;;;;;;4.93;2.88;;;14.70;99.90;;;;;;5074044;28;20251;-65
2023/09/25 05:02:58;;;;;;;5.28;3.72;;;12.80;99.90;;;;;;5074056;28;20451;-65
2023/09/25 05:05:24;;;;;;;9.88;3.28;;;12.80;99.90;;;;;;5073985;28;20024;-65
2023/09/25 05:07:52;;;;;;;4.10;2.88;;;12.90;99.90;;;;;;5074570;28;20336;-65
2023/09/25 05:10:22;;;;;;;7.30;2.80;;;13.00;99.90;;;;;;5073992;28;20042;-65
2023/09/25 05:12:48;;;;;;;4.13;2.67;;;13.00;99.90;;;;;;5074023;28;20452;-65
2023/09/25 05:15:15;;;;;;;5.63;3.03;;;13.10;99.90;;;;;;5073621;28;20070;-65
2023/09/25 05:17:42;;;;;;;5.70;2.47;;;13.60;99.90;;;;;;5055827;28;20452;-65
2023/09/25 05:20:16;;;;;;;6.90;2.60;;;13.20;99.90;;;;;;5073509;28;20048;-65
2023/09/25 05:22:45;;;;;;;2.38;2.13;;;13.20;99.90;;;;;;5056499;28;20032;-65
2023/09/25 05:25:12;;;;;;;5.57;2.50;;;13.30;99.90;;;;;;5073477;28;20375;-65
2023/09/25 05:27:40;;;;;;;2.97;2.38;;;13.40;99.90;;;;;;5073965;28;20043;-66
2023/09/25 05:30:09;;;;;;;3.47;2.28;;;13.40;99.90;;;;;;5073750;28;20359;-65
2023/09/25 05:32:35;;;;;;;;;;;13.50;99.90;;;;;;5074143;28;20025;-65
2023/09/25 05:35:01;;;;;;;4.35;2.10;;;13.60;99.90;;;;;;5073514;28;19958;-65
2023/09/25 05:37:27;;;;;;;7.15;2.80;;;13.70;99.90;;;;;;5073084;28;20383;-65
2023/09/25 05:39:52;;;;;;;5.90;3.35;;;13.80;99.90;;;;;;5073286;28;20029;-65
2023/09/25 05:42:18;;;;;;;4.68;2.85;;;13.90;99.90;;;;;;5073763;28;20027;-65
2023/09/25 05:44:44;;;;;;;4.45;2.42;;;14.00;99.90;;;;;;5074067;28;20452;-65
2023/09/25 05:47:09;;;;;;;4.20;2.55;;;14.10;99.90;;;;;;5073600;28;20124;-66
2023/09/25 05:49:35;;;;;;;5.60;2.22;;;14.20;99.90;;;;;;5073624;28;20021;-65
2023/09/25 05:52:00;;;;;;;2.00;1.90;;;14.30;99.90;;;;;;5074171;28;20021;-65
2023/09/25 05:54:26;;;;;;;2.58;1.95;;;14.40;99.90;;;;;;5074044;28;20462;-65
2023/09/25 05:56:52;;;;;;;3.25;1.98;;;14.50;99.90;;;;;;5073534;28;20017;-65
2023/09/25 05:59:18;;;;;;;4.90;2.00;;;14.50;99.90;;;;;;5073822;28;20017;-65
2023/09/25 06:01:44;;;;;;;3.58;2.13;;;14.50;99.90;;;;;;5056022;28;20115;-65
2023/09/25 06:04:10;;;;;;;6.88;2.58;;;14.50;99.90;;;;;;5054960;28;20119;-65
2023/09/25 06:06:36;;;;;;;7.75;2.20;;;14.50;99.90;;;;;;5055870;28;20032;-65
2023/09/25 06:09:02;;;;;;;7.57;3.40;;;14.50;99.90;;;;;;5073742;28;20032;-65
2023/09/25 06:11:28;;;;;;;3.03;2.13;;;14.60;99.90;;;;;;5073678;28;20024;-65
2023/09/25 06:13:54;;;;;;;5.03;3.15;;;14.70;99.90;;;;;;5055665;28;20119;-65
2023/09/25 06:16:20;;;;;;;3.20;2.72;;;14.70;99.90;;;;;;5073906;28;20028;-65
2023/09/25 06:18:46;;;;;;;4.20;2.47;;;14.70;99.90;;;;;;5055595;28;20028;-65
2023/09/25 06:21:13;;;;;;;5.00;2.70;;;14.70;99.90;;;;;;5073964;28;20433;-65
2023/09/25 06:23:39;;;;;;;4.70;2.40;;;14.80;99.90;;;;;;5073547;28;20037;-66
2023/09/25 06:26:06;;;;;;;8.18;3.65;;;14.90;99.90;;;;;;5055678;28;20025;-65
2023/09/25 06:28:32;;;;;;;3.97;2.30;;;14.90;99.90;;;;;;5073562;28;20406;-65
2023/09/25 06:30:58;;;;;;;4.25;2.00;;;15.00;99.90;;;;;;5073328;28;20024;-65
2023/09/25 06:33:25;;;;;;;3.05;2.30;;;15.10;99.90;;;;;;5073604;28;20449;-65
2023/09/25 06:35:51;;;;;;;4.72;2.25;;;15.30;99.90;;;;;;5074021;28;20042;-66
2023/09/25 06:38:17;;;;;;;5.53;2.20;;;15.40;99.90;;;;;;5058810;28;20395;-66
2023/09/25 06:40:46;;;;;;;6.05;1.88;;;15.50;99.90;;;;;;5075064;28;20169;-66
2023/09/25 06:43:12;;;;;;;3.08;2.08;;;15.60;99.90;;;;;;5074867;28;20369;-66
2023/09/25 06:45:39;;;;;;;2.72;1.88;;;15.80;99.90;;;;;;5073868;28;20433;-65
2023/09/25 06:48:05;;;;;;;2.22;1.88;;;15.90;99.90;;;;;;5073306;28;20107;-65
2023/09/25 06:50:30;;;;;;;4.90;2.38;;;16.00;99.90;;;;;;5073435;28;20032;-66
2023/09/25 06:52:57;;;;;;;2.47;1.60;;;16.00;99.90;;;;;;5073428;28;20025;-65
2023/09/25 06:55:23;;;;;;;4.15;1.90;;;16.10;99.90;;;;;;5073144;28;20078;-66
2023/09/25 06:57:49;;;;;;;3.50;1.80;;;16.20;99.90;;;;;;5073449;28;20020;-65
2023/09/25 07:00:15;;;;;;;4.07;2.22;;;16.30;99.90;;;;;;5055377;28;20104;-66
2023/09/25 07:02:40;;;;;;;3.33;1.67;;;16.40;99.90;;;;;;5073194;28;20166;-65
2023/09/25 07:05:06;;;;;;;4.95;1.50;;;16.50;99.90;;;;;;5073159;28;20028;-65
2023/09/25 07:07:32;;;;;;;1.67;1.27;;;16.60;99.90;;;;;;5073354;28;20028;-65
2023/09/25 07:09:58;;;;;;;3.20;1.95;;;16.60;99.90;;;;;;5073236;28;20020;-65
2023/09/25 07:12:24;;;;;;;3.65;2.08;;;16.60;99.90;;;;;;5055233;28;20017;-66
2023/09/25 07:14:55;;;;;;;1.80;1.70;;;16.50;99.90;;;;;;5055799;28;20074;-65
2023/09/25 07:17:22;;;;;;;3.88;2.45;;;16.40;99.90;;;;;;5077147;28;20048;-65
2023/09/25 07:19:51;;;;;;;5.15;2.50;;;16.30;99.90;;;;;;5076775;28;20028;-65
2023/09/25 07:22:17;;;;;;;5.63;2.70;;;16.20;99.90;;;;;;5076635;28;20028;-65
2023/09/25 07:24:43;;;;;;;6.55;2.63;;;16.10;99.90;;;;;;5059079;28;20399;-65
2023/09/25 07:27:08;;;;;;;4.38;2.20;;;16.00;99.90;;;;;;5079123;28;20356;-65
2023/09/25 07:29:36;;;;;;;3.38;2.40;;;16.00;99.90;;;;;;5076719;28;20020;-68
2023/09/25 07:32:03;;;;;;;2.33;2.10;;;16.00;99.90;;;;;;5058482;28;20082;-69
2023/09/25 07:34:31;;;;;;;2.42;2.15;;;16.20;99.90;;;;;;5076100;28;20033;-66
2023/09/25 07:36:57;;;;;;;2.88;2.13;;;16.30;99.90;;;;;;5076809;28;20031;-67
2023/09/25 07:39:23;;;;;;;2.67;2.28;;;16.40;99.90;;;;;;5076409;28;20028;-67
2023/09/25 07:41:52;;;;;;;6.82;2.40;;;16.40;99.90;;;;;;5058963;28;20016;-63
2023/09/25 07:44:18;;;;;;;3.88;2.53;;;16.40;99.90;;;;;;5076402;28;20056;-63
2023/09/25 07:46:44;;;;;;;3.38;2.47;;;16.50;99.90;;;;;;5076347;28;20471;-62
2023/09/25 07:49:10;;;;;;;5.03;2.00;;;16.40;99.90;;;;;;5076210;28;20031;-63
2023/09/25 07:51:36;;;;;;;2.33;2.10;;;16.40;99.90;;;;;;5075997;28;20088;-63
2023/09/25 07:54:03;;;;;;;2.45;2.20;;;16.50;99.90;;;;;;5058053;28;20073;-63
2023/09/25 07:56:30;;;;;;;5.60;2.63;;;16.50;99.90;;;;;;5076078;28;20020;-63
2023/09/25 07:58:56;;;;;;;6.50;2.35;;;16.60;99.90;;;;;;5058028;28;20029;-63
2023/09/25 08:01:22;;;;;;;4.22;2.28;;;16.70;99.90;;;;;;5058410;28;20020;-65
2023/09/25 08:03:53;;;;;;;2.83;2.53;;;16.70;99.90;;;;;;5075490;28;20029;-65
2023/09/25 08:06:21;;;;;;;2.72;2.53;;;16.70;99.90;;;;;;5076131;28;20061;-65
2023/09/25 08:08:46;;;;;;;4.53;2.70;;;16.50;99.90;;;;;;5075932;28;20020;-65
2023/09/25 08:11:15;;;;;;;3.80;2.35;;;16.50;99.90;;;;;;5076117;28;20031;-75
2023/09/25 08:13:41;;;;;;;3.70;2.30;;;16.50;99.90;;;;;;5075969;28;20028;-64
2023/09/25 08:16:07;;;;;;;3.92;2.40;;;16.60;99.90;;;;;;5075721;28;20036;-64
2023/09/25 08:18:33;;;;;;;5.05;2.63;;;16.50;99.90;;;;;;5075348;28;20099;-64
2023/09/25 08:20:59;;;;;;;3.95;2.40;;;16.60;99.90;;;;;;5075613;28;20020;-64
2023/09/25 08:23:26;;;;;;;3.90;2.55;;;16.60;99.90;;;;;;5075481;28;20035;-64
2023/09/25 08:25:51;;;;;;;5.90;2.65;;;16.60;99.90;;;;;;5075526;28;20024;-64
2023/09/25 08:28:18;;;;;;;5.38;2.72;;;16.60;99.90;;;;;;5074786;28;20028;-65
2023/09/25 08:30:44;;;;;;;4.97;3.15;;;16.60;99.90;;;;;;5075866;28;20056;-64
2023/09/25 08:33:10;;;;;;;4.95;2.95;;;16.60;99.90;;;;;;5075761;28;20082;-64
2023/09/25 08:35:36;;;;;;;5.70;2.80;;;16.60;99.90;;;;;;5074810;28;20046;-64
2023/09/25 08:38:02;;;;;;;4.22;2.85;;;16.70;99.90;;;;;;5075307;28;20032;-64
2023/09/25 08:40:33;;;;;;;4.70;2.40;;;16.70;99.90;;;;;;5075225;28;20536;-64
2023/09/25 08:42:59;;;;;;;4.13;2.83;;;16.70;99.90;;;;;;5057206;28;20448;-64
2023/09/25 08:45:24;;;;;;;5.43;3.38;;;16.60;99.90;;;;;;5075422;28;20031;-65
2023/09/25 08:47:50;;;;;;;7.35;3.20;;;16.60;99.90;;;;;;5075133;28;20035;-64
2023/09/25 08:50:16;;;;;;;3.35;2.95;;;16.60;99.90;;;;;;5075071;28;20028;-64
2023/09/25 08:52:42;;;;;;;6.18;3.25;;;16.60;99.90;;;;;;5074973;28;20097;-64
2023/09/25 08:55:08;;;;;;;3.15;2.85;;;16.70;99.90;;;;;;5074900;28;20097;-64
2023/09/25 08:57:37;;;;;;;4.00;3.47;;;16.70;99.90;;;;;;5057006;28;20359;-65
2023/09/25 09:00:11;;;;;;;5.10;3.58;;;16.70;99.90;;;;;;5056830;28;20020;-65
2023/09/25 09:02:40;;;;;;;5.75;2.90;;;16.80;99.90;;;;;;5056983;28;20367;-65
2023/09/25 09:05:16;;;;;;;4.18;3.03;;;16.90;99.90;;;;;;5075106;28;20074;-65
2023/09/25 09:08:02;;;;;;;5.43;3.08;;;17.00;99.90;;;;;;5074895;28;20044;-65
2023/09/25 09:10:36;;;;;;;4.80;2.80;;;17.00;99.90;;;;;;5074675;28;20031;-65
2023/09/25 09:13:07;;;;;;;5.47;2.88;;;17.10;99.90;;;;;;5074549;28;20108;-64
2023/09/25 09:15:33;;;;;;;5.60;3.13;;;17.30;99.90;;;;;;5056919;28;20028;-65
2023/09/25 09:17:58;;;;;;;3.80;2.90;;;17.50;99.90;;;;;;5075472;28;20016;-64
2023/09/25 09:20:38;;;;;;;3.63;2.83;;;17.70;99.90;;;;;;5074922;28;20408;-65
2023/09/25 09:23:06;;;;;;;4.18;2.83;;;18.00;99.90;;;;;;5075353;28;20050;-69
2023/09/25 09:25:31;;;;;;;5.30;2.75;;;18.40;99.90;;;;;;5062769;28;20024;-67
2023/09/25 09:28:00;;;;;;;3.00;2.58;;;18.70;99.90;;;;;;5082489;28;20043;-65
2023/09/25 09:30:26;;;;;;;4.57;2.60;;;19.10;99.90;;;;;;5087645;28;20024;-68
2023/09/25 09:32:52;;;;;;;2.25;2.03;;;19.40;99.90;;;;;;5068154;28;20028;-66
2023/09/25 09:35:23;;;;;;;6.40;2.83;;;19.80;99.90;;;;;;5084665;28;20036;-65
2023/09/25 09:37:54;;;;;;;2.92;2.47;;;20.30;99.90;;;;;;5076046;28;20020;-65
2023/09/25 09:40:21;;;;;;;3.35;2.50;;;19.90;99.90;;;;;;5074743;28;20025;-64
2023/09/25 09:42:50;;;;;;;7.82;2.35;;;19.70;99.90;;;;;;5074353;28;20086;-65
2023/09/25 09:45:16;;;;;;;;;;;19.70;99.90;;;;;;5074735;28;20031;-65
2023/09/25 09:47:44;;;;;;;3.65;2.38;;;19.50;99.90;;;;;;5074203;28;19914;-65
2023/09/25 09:50:11;;;;;;;4.45;2.55;;;19.40;99.90;;;;;;5073916;28;20024;-65
2023/09/25 09:52:39;;;;;;;2.55;2.13;;;19.60;99.90;;;;;;5074171;28;20090;-64
2023/09/25 09:55:06;;;;;;;3.03;1.98;;;19.70;99.90;;;;;;5074006;28;20103;-65
2023/09/25 09:57:32;;;;;;;4.07;2.58;;;19.90;99.90;;;;;;5056023;28;20020;-65
2023/09/25 09:59:58;;;;;;;4.28;2.63;;;19.60;99.90;;;;;;5074040;28;20077;-65
2023/09/25 10:02:26;;;;;;;6.97;2.60;;;19.60;99.90;;;;;;5074207;28;20020;-65
2023/09/25 10:04:53;;;;;;;3.70;3.40;;;19.40;99.90;;;;;;5073479;28;20597;-64
2023/09/25 10:07:18;;;;;;;5.65;2.53;;;19.20;99.90;;;;;;5073705;28;20013;-65
2023/09/25 10:09:57;;;;;;;4.00;2.53;;;19.30;99.90;;;;;;5073989;28;20046;-65
2023/09/25 10:12:52;;;;;;;3.10;2.42;;;19.40;99.90;;;;;;5055691;28;20023;-66
2023/09/25 10:15:23;;;;;;;3.92;2.28;;;19.40;99.90;;;;;;5055784;28;20028;-65
2023/09/25 10:17:49;;;;;;;3.58;2.28;;;19.40;99.90;;;;;;5073583;28;20483;-65
2023/09/25 10:20:36;;;;;;;4.43;2.55;;;19.50;99.90;;;;;;5055696;28;20060;-64
2023/09/25 10:23:21;;;;;;;2.80;1.98;;;19.40;99.90;;;;;;5074074;28;20364;-66
2023/09/25 10:25:57;;;;;;;4.97;2.47;;;19.60;99.90;;;;;;5056091;28;20035;-64
2023/09/25 10:28:32;;;;;;;4.13;2.17;;;19.70;99.90;;;;;;5074158;28;20040;-65
2023/09/25 10:31:00;;;;;;;3.50;2.00;;;20.00;99.90;;;;;;5073543;28;20031;-66
2023/09/25 10:33:33;;;;;;;3.40;2.30;;;20.60;99.70;;;;;;5073345;28;20445;-65
2023/09/25 10:36:04;;;;;;;3.60;2.38;;;20.70;99.00;;;;;;5073079;28;20064;-64
2023/09/25 10:38:34;;;;;;;2.85;2.15;;;20.90;98.70;;;;;;5055728;28;20021;-65
2023/09/25 10:41:06;;;;;;;3.10;2.22;;;20.90;99.00;;;;;;5055724;28;20017;-65
2023/09/25 10:43:34;;;;;;;3.67;2.33;;;20.90;98.90;;;;;;5073774;28;20032;-65
2023/09/25 10:46:01;;;;;;;4.38;2.45;;;21.00;98.80;;;;;;5077168;28;20494;-65
2023/09/25 10:48:27;;;;;;;3.55;2.67;;;20.90;98.30;;;;;;5077081;28;20414;-64
2023/09/25 10:50:54;;;;;;;4.53;2.35;;;20.70;98.70;;;;;;5078895;28;20028;-65
2023/09/25 10:53:21;;;;;;;2.30;2.05;;;20.50;98.80;;;;;;5078983;28;20055;-65
2023/09/25 10:55:47;;;;;;;3.38;1.88;;;20.30;98.90;;;;;;5059334;28;20581;-64
2023/09/25 10:58:14;;;;;;;3.03;2.20;;;20.20;99.20;;;;;;5077205;28;20111;-63
2023/09/25 11:00:41;;;;;;;2.42;2.20;;;20.30;99.70;;;;;;5077216;28;20032;-63
2023/09/25 11:03:07;;;;;;;3.35;2.05;;;20.40;99.20;;;;;;5077074;28;20047;-65
2023/09/25 11:05:35;;;;;;;1.92;1.80;;;20.60;98.90;;;;;;5076966;28;20035;-65
2023/09/25 11:08:01;;;;;;;3.47;2.35;;;20.80;99.00;;;;;;5059418;28;20056;-65
2023/09/25 11:10:35;;;;;;;2.53;2.15;;;20.90;98.30;;;;;;5077114;28;20021;-65
2023/09/25 11:13:01;;;;;;;2.47;2.00;;;21.00;98.10;;;;;;5059266;28;20031;-65
2023/09/25 11:15:28;;;;;;;4.78;2.10;;;21.40;97.70;;;;;;5059043;28;20028;-64
2023/09/25 11:17:56;;;;;;;2.00;1.85;;;21.60;97.00;;;;;;5077019;28;20016;-72
2023/09/25 11:20:33;;;;;;;3.03;1.75;;;21.60;97.00;;;;;;5076936;28;20019;-65
2023/09/25 11:23:05;;;;;;;3.88;2.20;;;21.70;96.70;;;;;;5062583;28;20460;-64
2023/09/25 11:25:31;;;;;;;2.13;2.00;;;22.20;96.20;;;;;;5077320;28;20024;-63
2023/09/25 11:27:57;;;;;;;2.42;1.90;;;22.50;96.00;;;;;;5076916;28;20020;-63
2023/09/25 11:30:28;;;;;;;7.00;2.30;;;23.20;94.90;;;;;;5076913;28;20495;-63
2023/09/25 11:32:53;;;;;;;5.10;1.85;;;23.50;94.00;;;;;;5077309;28;20422;-63
2023/09/25 11:35:25;;;;;;;3.55;1.75;;;24.10;92.90;;;;;;5076877;28;20045;-64
2023/09/25 11:38:02;;;;;;;3.78;1.63;;;24.40;91.80;;;;;;5076831;28;20020;-64
2023/09/25 11:40:29;;;;;;;1.98;1.88;;;24.60;91.20;;;;;;5058486;28;20364;-63
2023/09/25 11:42:56;;;;;;;3.95;1.50;;;25.10;90.20;;;;;;5076577;28;20123;-64
2023/09/25 11:45:22;;;;;;;2.10;1.90;;;25.60;90.00;;;;;;5058378;28;20029;-64
2023/09/25 11:47:48;;;;;;;2.53;1.70;;;25.30;87.40;;;;;;5076282;28;20089;-64
2023/09/25 11:50:16;;;;;;;3.00;1.83;;;25.00;87.40;;;;;;5076585;28;20450;-63
2023/09/25 11:52:43;;;;;;;3.22;1.77;;;25.30;88.60;;;;;;5058179;28;20078;-66
2023/09/25 11:55:13;;;;;;;4.90;1.40;;;26.50;84.70;;;;;;5076289;28;20017;-64
2023/09/25 11:57:41;;;;;;;2.65;1.30;;;27.40;81.00;;;;;;5076434;28;20016;-64
2023/09/25 12:00:09;;;;;;;3.80;1.40;;;27.50;79.10;;;;;;5058513;28;20143;-64
2023/09/25 12:02:35;;;;;;;2.53;1.53;;;28.10;78.20;;;;;;5056817;28;20506;-66
2023/09/25 12:05:01;;;;;;;1.45;1.33;;;29.30;74.70;;;;;;5076156;28;20423;-66
2023/09/25 12:07:30;;;;;;;3.28;1.40;;;29.20;70.50;;;;;;5076160;28;20032;-64
2023/09/25 12:09:56;;;;;;;3.20;1.40;;;28.10;71.60;;;;;;5076171;28;20013;-64
2023/09/25 12:12:23;;;;;;;2.55;1.20;;;27.70;72.30;;;;;;5076099;28;20056;-63
2023/09/25 12:14:49;;;;;;;3.17;1.30;;;27.80;72.90;;;;;;5057879;28;20026;-64
2023/09/25 12:17:16;;;;;;;1.75;0.93;;;28.00;72.10;;;;;;5057779;28;20017;-64
2023/09/25 12:19:42;;;;;;;2.58;1.67;;;28.40;70.90;;;;;;5058152;28;20059;-64
2023/09/25 12:22:07;;;;;;;1.20;1.10;;;28.00;71.10;;;;;;5075954;28;20367;-64
2023/09/25 12:24:33;;;;;;;2.13;1.30;;;27.50;71.80;;;;;;5075342;28;20024;-64
2023/09/25 12:26:58;;;;;;;1.00;1.00;;;27.80;71.40;;;;;;5075740;28;20028;-64
2023/09/25 12:29:24;;;;;;;2.92;1.42;;;28.00;70.50;;;;;;5075407;28;20020;-64
2023/09/25 12:31:50;;;;;;;2.00;1.48;;;28.20;70.20;;;;;;5057350;28;20101;-64
2023/09/25 12:34:16;;;;;;;4.10;1.40;;;28.40;69.20;;;;;;5075354;28;20020;-64
2023/09/25 12:36:41;;;;;;;3.00;1.25;;;28.80;68.90;;;;;;5076056;28;20059;-64
2023/09/25 12:39:08;;;;;;;2.63;1.15;;;29.20;68.50;;;;;;5075508;28;20025;-64
2023/09/25 12:41:34;;;;;;;2.17;1.10;;;29.90;67.00;;;;;;5057446;28;20020;-66
2023/09/25 12:44:00;;;;;;;3.20;1.00;;;30.00;65.90;;;;;;5074908;28;20035;-64
2023/09/25 12:46:26;;;;;;;1.75;1.25;;;30.50;64.30;;;;;;5056182;28;20035;-64